createdAt,value
2022-09-30T00:01:25.737Z,20.60
2022-09-30T00:03:57.235Z,22.80
2022-09-30T00:06:26.872Z,20.75
2022-09-30T00:08:58.081Z,20.30
2022-09-30T00:11:28.899Z,20.23
2022-09-30T00:14:01.073Z,26.25
2022-09-30T00:16:34.804Z,21.52
2022-09-30T00:19:04.813Z,21.95
2022-09-30T00:21:34.228Z,23.02
2022-09-30T00:24:02.099Z,25.30
2022-09-30T00:26:29.410Z,26.15
2022-09-30T00:28:59.336Z,22.35
2022-09-30T00:31:29.857Z,20.63
2022-09-30T00:34:09.123Z,22.17
2022-09-30T00:36:43.857Z,20.13
2022-09-30T00:39:29.881Z,20.73
2022-09-30T00:42:02.602Z,22.00
2022-09-30T00:44:52.698Z,24.35
2022-09-30T00:47:38.340Z,21.02
2022-09-30T00:50:34.041Z,24.40
2022-09-30T00:53:07.092Z,24.00
2022-09-30T00:55:36.939Z,22.55
2022-09-30T00:58:07.578Z,22.92
2022-09-30T01:00:34.833Z,21.48
2022-09-30T01:03:03.914Z,26.65
2022-09-30T01:05:33.223Z,24.00
2022-09-30T01:08:03.556Z,22.88
2022-09-30T01:10:30.650Z,21.42
2022-09-30T01:12:58.522Z,22.60
2022-09-30T01:15:44.014Z,22.85
2022-09-30T01:18:29.852Z,20.88
2022-09-30T01:21:32.877Z,20.88
2022-09-30T01:24:28.079Z,26.30
2022-09-30T01:27:04.900Z,21.38
2022-09-30T01:29:41.805Z,25.15
2022-09-30T01:32:24.097Z,23.60
2022-09-30T01:35:15.450Z,21.90
2022-09-30T01:38:12.690Z,27.83
2022-09-30T01:41:07.823Z,24.25
2022-09-30T01:43:50.918Z,22.65
2022-09-30T01:46:27.293Z,21.17
2022-09-30T01:49:04.536Z,21.58
2022-09-30T01:51:40.309Z,26.27
2022-09-30T01:54:48.253Z,24.55
2022-09-30T01:57:23.005Z,22.98
2022-09-30T02:00:08.141Z,23.83
2022-09-30T02:02:51.374Z,26.25
2022-09-30T02:05:41.648Z,27.23
2022-09-30T02:08:18.628Z,25.25
2022-09-30T02:11:01.607Z,25.58
2022-09-30T02:13:37.316Z,25.50
2022-09-30T02:16:13.236Z,28.00
2022-09-30T02:18:45.098Z,26.67
2022-09-30T02:21:14.618Z,29.17
2022-09-30T02:23:45.157Z,28.50
2022-09-30T02:26:31.415Z,25.98
2022-09-30T02:29:05.134Z,26.17
2022-09-30T02:31:35.998Z,28.08
2022-09-30T02:34:05.591Z,25.00
2022-09-30T02:36:38.321Z,25.95
2022-09-30T02:39:10.118Z,25.30
2022-09-30T02:41:44.927Z,28.33
2022-09-30T02:44:13.223Z,27.88
2022-09-30T02:47:07.357Z,32.13
2022-09-30T02:50:14.659Z,26.38
2022-09-30T02:53:19.761Z,29.75
2022-09-30T02:56:11.556Z,37.05
2022-09-30T02:58:40.338Z,28.45
2022-09-30T03:01:09.489Z,32.92
2022-09-30T03:03:48.835Z,33.05
2022-09-30T03:06:16.371Z,29.90
2022-09-30T03:08:43.374Z,30.55
2022-09-30T03:11:29.970Z,29.05
2022-09-30T03:14:19.270Z,33.10
2022-09-30T03:17:01.515Z,34.22
2022-09-30T03:19:31.565Z,31.42
2022-09-30T03:22:26.477Z,36.45
2022-09-30T03:25:18.860Z,35.58
2022-09-30T03:27:56.057Z,39.00
2022-09-30T03:30:28.345Z,36.58
2022-09-30T03:33:10.241Z,35.67
2022-09-30T03:35:37.025Z,36.70
2022-09-30T03:38:39.900Z,34.90
2022-09-30T03:41:11.681Z,34.90
2022-09-30T03:43:50.766Z,42.33
2022-09-30T03:46:38.557Z,41.60
2022-09-30T03:49:10.751Z,38.67
2022-09-30T03:51:39.903Z,41.00
2022-09-30T03:54:10.185Z,40.65
2022-09-30T03:56:42.263Z,40.90
2022-09-30T03:59:17.223Z,37.92
2022-09-30T04:01:44.096Z,39.85
2022-09-30T04:04:12.485Z,40.13
2022-09-30T04:06:39.403Z,45.10
2022-09-30T04:09:07.318Z,41.40
2022-09-30T04:11:36.123Z,39.05
2022-09-30T04:14:03.168Z,37.20
2022-09-30T04:16:31.816Z,38.05
2022-09-30T04:18:59.054Z,35.08
2022-09-30T04:21:28.820Z,36.70
2022-09-30T04:23:56.374Z,40.22
2022-09-30T04:26:23.235Z,41.75
2022-09-30T04:28:50.437Z,38.85
2022-09-30T04:31:19.042Z,38.67
2022-09-30T04:33:45.905Z,43.20
2022-09-30T04:36:15.095Z,46.90
2022-09-30T04:38:42.201Z,47.00
2022-09-30T04:41:17.935Z,44.70
2022-09-30T04:43:46.741Z,43.40
2022-09-30T04:46:18.731Z,41.83
2022-09-30T04:48:46.732Z,45.67
2022-09-30T04:51:15.087Z,46.05
2022-09-30T04:53:42.548Z,50.08
2022-09-30T04:56:10.068Z,45.65
2022-09-30T04:58:37.392Z,47.42
2022-09-30T05:01:08.730Z,44.90
2022-09-30T05:03:36.248Z,48.95
2022-09-30T05:06:04.748Z,43.50
2022-09-30T05:08:33.794Z,45.92
2022-09-30T05:11:03.440Z,45.75
2022-09-30T05:13:35.106Z,50.38
2022-09-30T05:16:02.701Z,51.15
2022-09-30T05:18:29.776Z,49.47
2022-09-30T05:20:58.027Z,51.17
2022-09-30T05:23:26.467Z,56.05
2022-09-30T05:25:53.898Z,57.80
2022-09-30T05:28:20.952Z,55.97
2022-09-30T05:30:49.899Z,49.63
2022-09-30T05:33:17.841Z,49.88
2022-09-30T05:35:44.816Z,51.58
2022-09-30T05:38:11.780Z,53.70
2022-09-30T05:40:39.550Z,268.00
2022-09-30T05:43:07.342Z,87.85
2022-09-30T05:45:34.867Z,62.00
2022-09-30T05:48:02.729Z,53.75
2022-09-30T05:50:31.054Z,52.10
2022-09-30T05:52:58.066Z,49.47
2022-09-30T05:55:25.025Z,52.90
2022-09-30T05:57:52.974Z,46.33
2022-09-30T06:00:20.261Z,49.88
2022-09-30T06:02:52.176Z,47.08
2022-09-30T06:05:19.419Z,50.00
2022-09-30T06:07:46.295Z,48.53
2022-09-30T06:10:13.430Z,62.05
2022-09-30T06:12:41.241Z,51.20
2022-09-30T06:15:09.341Z,68.47
2022-09-30T06:17:37.215Z,49.92
2022-09-30T06:20:06.726Z,53.70
2022-09-30T06:22:36.047Z,53.05
2022-09-30T06:25:06.950Z,49.60
2022-09-30T06:27:34.442Z,46.22
2022-09-30T06:30:01.244Z,45.30
2022-09-30T06:32:28.066Z,44.72
2022-09-30T06:34:55.863Z,49.33
2022-09-30T06:37:23.961Z,46.55
2022-09-30T06:39:51.196Z,46.28
2022-09-30T06:42:18.796Z,45.42
2022-09-30T06:44:52.801Z,38.83
2022-09-30T06:47:25.574Z,39.67
2022-09-30T06:49:58.653Z,44.85
2022-09-30T06:54:57.815Z,42.72
2022-09-30T06:57:27.670Z,45.20
2022-09-30T06:59:57.304Z,42.70
2022-09-30T07:02:24.482Z,46.92
2022-09-30T07:04:52.373Z,44.10
2022-09-30T07:07:22.337Z,46.78
2022-09-30T07:09:50.368Z,40.85
2022-09-30T07:12:17.388Z,45.50
2022-09-30T07:14:44.429Z,41.88
2022-09-30T07:17:11.303Z,39.72
2022-09-30T07:19:38.595Z,37.95
2022-09-30T07:22:26.418Z,39.53
2022-09-30T07:24:54.256Z,36.38
2022-09-30T07:27:21.530Z,32.42
2022-09-30T07:30:08.213Z,36.25
2022-09-30T07:32:37.794Z,37.50
2022-09-30T07:35:06.261Z,24.88
2022-09-30T07:37:36.061Z,29.10
2022-09-30T07:40:07.658Z,24.80
2022-09-30T07:42:39.263Z,28.10
2022-09-30T07:45:06.520Z,26.50
2022-09-30T07:47:37.473Z,28.73
2022-09-30T07:50:06.032Z,26.90
2022-09-30T07:52:33.437Z,27.95
2022-09-30T07:55:00.221Z,24.67
2022-09-30T07:57:27.195Z,27.90
2022-09-30T07:59:54.013Z,27.85
2022-09-30T08:02:21.001Z,21.98
2022-09-30T08:04:50.508Z,22.73
2022-09-30T08:07:19.495Z,25.10
2022-09-30T08:09:46.403Z,25.17
2022-09-30T08:12:14.446Z,23.33
2022-09-30T08:14:44.873Z,23.25
2022-09-30T08:17:11.818Z,21.05
2022-09-30T08:19:41.351Z,23.02
2022-09-30T08:22:10.565Z,17.45
2022-09-30T08:24:37.407Z,18.25
2022-09-30T08:27:04.618Z,21.35
2022-09-30T08:32:20.501Z,21.35
2022-09-30T08:34:47.348Z,21.27
2022-09-30T08:37:14.175Z,18.70
2022-09-30T08:39:42.484Z,19.00
2022-09-30T08:42:51.767Z,18.42
2022-09-30T08:45:41.503Z,18.73
2022-09-30T08:48:32.434Z,15.13
2022-09-30T08:51:00.874Z,16.00
2022-09-30T08:53:35.438Z,12.77
2022-09-30T08:56:04.522Z,15.70
2022-09-30T08:58:38.888Z,19.05
2022-09-30T09:01:20.000Z,15.50
2022-09-30T09:03:48.514Z,18.63
2022-09-30T09:06:27.349Z,18.50
2022-09-30T09:09:10.182Z,17.20
2022-09-30T09:14:54.913Z,14.77
2022-09-30T09:17:30.761Z,13.80
2022-09-30T09:20:11.100Z,8.55
2022-09-30T09:22:38.703Z,12.57
2022-09-30T09:25:06.213Z,9.45
2022-09-30T09:27:53.121Z,11.98
2022-09-30T09:30:23.606Z,12.82
2022-09-30T09:32:55.334Z,9.93
2022-09-30T09:35:53.305Z,9.90
2022-09-30T09:38:36.426Z,9.73
2022-09-30T09:41:26.352Z,8.38
2022-09-30T09:44:00.436Z,6.35
2022-09-30T09:46:30.645Z,11.43
2022-09-30T09:49:23.429Z,8.55
2022-09-30T09:52:12.581Z,7.28
2022-09-30T09:54:44.003Z,5.40
2022-09-30T09:57:18.203Z,11.20
2022-09-30T10:00:26.844Z,6.13
2022-09-30T10:03:01.272Z,8.65
2022-09-30T10:05:39.609Z,6.55
2022-09-30T10:08:20.939Z,10.52
2022-09-30T10:10:53.743Z,13.10
2022-09-30T10:13:46.337Z,8.55
2022-09-30T10:16:35.581Z,8.02
2022-09-30T10:19:09.423Z,10.07
2022-09-30T10:21:39.149Z,8.93
2022-09-30T10:24:31.134Z,9.40
2022-09-30T10:26:57.949Z,8.10
2022-09-30T10:29:31.559Z,11.60
2022-09-30T10:32:06.474Z,12.65
2022-09-30T10:34:37.632Z,11.35
2022-09-30T10:37:17.023Z,12.85
2022-09-30T10:39:50.519Z,10.98
2022-09-30T10:42:27.161Z,13.35
2022-09-30T10:45:22.455Z,10.45
2022-09-30T10:47:54.125Z,12.35
2022-09-30T10:50:25.126Z,13.80
2022-09-30T10:53:00.755Z,10.18
2022-09-30T10:55:41.805Z,12.50
2022-09-30T10:58:26.764Z,11.80
2022-09-30T11:01:23.917Z,10.15
2022-09-30T11:04:05.543Z,16.95
2022-09-30T11:06:34.686Z,9.32
2022-09-30T11:09:16.655Z,9.60
2022-09-30T11:11:51.226Z,10.40
2022-09-30T11:14:31.066Z,11.30
2022-09-30T11:17:26.098Z,12.35
2022-09-30T11:20:18.764Z,9.35
2022-09-30T11:22:54.711Z,12.60
2022-09-30T11:25:39.843Z,9.50
2022-09-30T11:28:28.718Z,7.72
2022-09-30T11:30:58.513Z,6.88
2022-09-30T11:33:55.203Z,6.50
2022-09-30T11:36:42.763Z,6.15
2022-09-30T11:39:37.574Z,8.32
2022-09-30T11:42:16.280Z,6.50
2022-09-30T11:44:45.325Z,10.38
2022-09-30T11:47:12.214Z,6.53
2022-09-30T11:50:06.794Z,10.32
2022-09-30T11:52:55.279Z,12.75
2022-09-30T11:56:06.293Z,8.88
2022-09-30T11:58:43.477Z,7.55
2022-09-30T12:01:41.389Z,8.30
2022-09-30T12:04:18.285Z,13.40
2022-09-30T12:06:55.226Z,7.68
2022-09-30T12:09:27.123Z,10.85
2022-09-30T12:11:59.297Z,5.50
2022-09-30T12:14:54.480Z,11.07
2022-09-30T12:17:31.376Z,9.70
2022-09-30T12:20:29.574Z,9.55
2022-09-30T12:23:18.149Z,6.22
2022-09-30T12:26:01.158Z,11.05
2022-09-30T12:29:17.863Z,8.30
2022-09-30T12:32:01.310Z,9.35
2022-09-30T12:35:01.772Z,10.60
2022-09-30T12:37:47.461Z,10.77
2022-09-30T12:40:43.767Z,9.88
2022-09-30T12:43:49.706Z,9.63
2022-09-30T12:46:31.936Z,8.93
2022-09-30T12:49:05.166Z,10.82
2022-09-30T12:51:42.377Z,9.27
2022-09-30T12:54:28.249Z,11.48
2022-09-30T12:57:00.494Z,15.80
2022-09-30T12:59:52.669Z,11.27
2022-09-30T13:02:42.631Z,10.48
2022-09-30T13:05:46.223Z,10.23
2022-09-30T13:08:16.183Z,12.77
2022-09-30T13:10:56.254Z,9.52
2022-09-30T13:13:27.808Z,10.57
2022-09-30T13:16:03.573Z,10.80
2022-09-30T13:18:31.593Z,6.93
2022-09-30T13:21:04.604Z,9.07
2022-09-30T13:23:42.210Z,6.40
2022-09-30T13:26:34.275Z,7.80
2022-09-30T13:29:01.463Z,8.02
2022-09-30T13:31:50.618Z,8.02
2022-09-30T13:34:28.106Z,10.20
2022-09-30T13:37:03.891Z,8.75
2022-09-30T13:39:45.889Z,36.67
2022-09-30T13:42:28.123Z,11.65
2022-09-30T13:45:07.125Z,7.00
2022-09-30T13:47:50.036Z,8.45
2022-09-30T13:50:37.957Z,6.20
2022-09-30T13:53:13.271Z,9.43
2022-09-30T13:55:46.673Z,7.60
2022-09-30T13:58:53.866Z,6.43
2022-09-30T14:01:26.269Z,6.55
2022-09-30T14:06:54.338Z,7.55
2022-09-30T14:09:34.474Z,7.47
2022-09-30T14:12:31.746Z,5.22
2022-09-30T14:15:15.996Z,4.38
2022-09-30T14:17:52.422Z,8.50
2022-09-30T14:20:27.610Z,5.28
2022-09-30T14:22:56.657Z,5.82
2022-09-30T14:25:24.001Z,4.43
2022-09-30T14:28:03.686Z,8.93
2022-09-30T14:30:45.235Z,7.00
2022-09-30T14:33:28.131Z,4.15
2022-09-30T14:35:55.221Z,4.82
2022-09-30T14:38:28.024Z,5.50
2022-09-30T14:41:00.786Z,5.15
2022-09-30T14:43:35.928Z,7.43
2022-09-30T14:46:32.314Z,3.33
2022-09-30T14:49:06.164Z,6.10
2022-09-30T14:51:43.463Z,3.40
2022-09-30T14:54:22.685Z,6.78
2022-09-30T14:56:54.729Z,5.07
2022-09-30T14:59:32.610Z,6.97
2022-09-30T15:02:02.915Z,6.72
2022-09-30T15:04:40.123Z,7.03
2022-09-30T15:07:12.506Z,5.22
2022-09-30T15:09:50.860Z,4.40
2022-09-30T15:12:22.709Z,4.82
2022-09-30T15:15:26.544Z,5.15
2022-09-30T15:18:02.548Z,6.40
2022-09-30T15:20:35.559Z,7.93
2022-09-30T15:23:31.247Z,3.72
2022-09-30T15:26:02.410Z,3.40
2022-09-30T15:28:29.610Z,4.70
2022-09-30T15:30:59.377Z,5.70
2022-09-30T15:33:29.111Z,4.43
2022-09-30T15:36:12.046Z,3.50
2022-09-30T15:38:39.252Z,4.50
2022-09-30T15:41:08.939Z,5.72
2022-09-30T15:43:51.090Z,4.50
2022-09-30T15:46:35.234Z,5.30
2022-09-30T15:49:09.114Z,4.60
2022-09-30T15:51:42.375Z,3.75
2022-09-30T15:54:15.266Z,3.72
2022-09-30T15:56:43.731Z,7.60
2022-09-30T15:59:15.028Z,5.10
2022-09-30T16:01:47.035Z,5.88
2022-09-30T16:04:17.528Z,5.10
2022-09-30T16:06:59.911Z,5.25
2022-09-30T16:09:41.717Z,5.18
2022-09-30T16:12:21.354Z,6.63
2022-09-30T16:14:51.155Z,5.53
2022-09-30T16:17:36.202Z,8.25
2022-09-30T16:20:25.240Z,5.38
2022-09-30T16:22:56.034Z,4.18
2022-09-30T16:25:33.816Z,6.70
2022-09-30T16:28:14.111Z,4.15
2022-09-30T16:30:50.454Z,5.47
2022-09-30T16:33:18.553Z,8.35
2022-09-30T16:35:49.814Z,8.98
2022-09-30T16:38:18.808Z,8.10
2022-09-30T16:40:46.118Z,8.32
2022-09-30T16:43:13.142Z,6.88
2022-09-30T16:45:42.625Z,4.38
2022-09-30T16:48:19.251Z,3.97
2022-09-30T16:50:54.422Z,5.13
2022-09-30T16:56:19.915Z,6.93
2022-09-30T16:58:47.916Z,3.85
2022-09-30T17:01:22.865Z,3.28
2022-09-30T17:03:50.270Z,4.82
2022-09-30T17:06:26.334Z,4.18
2022-09-30T17:08:58.120Z,4.50
2022-09-30T17:14:20.009Z,7.00
2022-09-30T17:16:48.174Z,5.20
2022-09-30T17:19:16.098Z,4.32
2022-09-30T17:21:45.198Z,4.32
2022-09-30T17:24:12.073Z,5.63
2022-09-30T17:26:41.045Z,5.50
2022-09-30T17:29:31.434Z,8.63
2022-09-30T17:31:59.072Z,6.13
2022-09-30T17:34:28.259Z,5.38
2022-09-30T17:36:56.679Z,7.57
2022-09-30T17:39:29.664Z,5.00
2022-09-30T17:42:17.089Z,5.30
2022-09-30T17:44:45.045Z,4.68
2022-09-30T17:47:15.019Z,5.00
2022-09-30T17:49:43.024Z,6.85
2022-09-30T17:52:09.984Z,4.93
2022-09-30T17:54:36.775Z,6.20
2022-09-30T17:57:03.786Z,8.10
2022-09-30T17:59:30.717Z,6.20
2022-09-30T18:01:57.672Z,5.90
2022-09-30T18:04:30.722Z,4.28
2022-09-30T18:07:01.086Z,7.55
2022-09-30T18:09:28.859Z,5.07
2022-09-30T18:12:18.493Z,7.70
2022-09-30T18:14:46.503Z,7.68
2022-09-30T18:17:14.422Z,4.65
2022-09-30T18:19:41.344Z,4.78
2022-09-30T18:22:09.508Z,4.22
2022-09-30T18:24:54.813Z,7.15
2022-09-30T18:27:22.875Z,5.45
2022-09-30T18:29:50.892Z,6.22
2022-09-30T18:32:18.768Z,7.13
2022-09-30T18:34:45.638Z,5.25
2022-09-30T18:37:12.500Z,6.03
2022-09-30T18:39:40.409Z,4.32
2022-09-30T18:42:09.441Z,6.80
2022-09-30T18:44:38.119Z,7.97
2022-09-30T18:47:05.895Z,4.88
2022-09-30T18:49:33.786Z,5.88
2022-09-30T18:52:01.815Z,6.00
2022-09-30T18:54:28.684Z,5.55
2022-09-30T18:56:55.863Z,6.20
2022-09-30T18:59:24.750Z,9.90
2022-09-30T19:01:51.850Z,6.05
2022-09-30T19:04:19.953Z,7.38
2022-09-30T19:06:47.730Z,6.50
2022-09-30T19:09:16.715Z,8.55
2022-09-30T19:11:45.153Z,9.63
2022-09-30T19:14:19.400Z,8.07
2022-09-30T19:16:46.533Z,9.63
2022-09-30T19:19:15.353Z,8.13
2022-09-30T19:21:44.665Z,7.53
2022-09-30T19:24:13.069Z,9.50
2022-09-30T19:26:41.422Z,8.45
2022-09-30T19:29:12.524Z,8.75
2022-09-30T19:31:42.879Z,8.85
2022-09-30T19:34:11.678Z,7.95
2022-09-30T19:36:50.285Z,8.88
2022-09-30T19:39:18.977Z,7.53
2022-09-30T19:41:47.362Z,7.93
2022-09-30T19:44:18.809Z,9.00
2022-09-30T19:46:50.952Z,10.38
2022-09-30T19:49:18.712Z,8.02
2022-09-30T19:51:52.858Z,12.98
2022-09-30T19:54:36.926Z,11.02
2022-09-30T19:57:08.105Z,7.40
2022-09-30T19:59:37.041Z,7.80
2022-09-30T20:02:04.967Z,7.13
2022-09-30T20:04:34.508Z,7.25
2022-09-30T20:07:01.424Z,5.15
2022-09-30T20:09:32.990Z,9.95
2022-09-30T20:12:00.239Z,9.13
2022-09-30T20:14:47.828Z,4.93
2022-09-30T20:17:16.151Z,6.80
2022-09-30T20:19:44.030Z,3.97
2022-09-30T20:22:11.970Z,8.57
2022-09-30T20:24:42.126Z,5.88
2022-09-30T20:27:12.314Z,7.97
2022-09-30T20:29:41.214Z,5.10
2022-09-30T20:32:12.318Z,5.00
2022-09-30T20:34:41.957Z,7.60
2022-09-30T20:37:09.828Z,7.53
2022-09-30T20:39:40.695Z,8.27
2022-09-30T20:42:09.578Z,5.45
2022-09-30T20:44:37.924Z,4.60
2022-09-30T20:47:07.806Z,6.30
2022-09-30T20:49:35.781Z,9.30
2022-09-30T20:52:04.009Z,5.70
2022-09-30T20:54:32.562Z,6.18
2022-09-30T20:57:08.894Z,7.68
2022-09-30T20:59:35.923Z,7.20
2022-09-30T21:02:04.939Z,5.93
2022-09-30T21:04:33.184Z,7.13
2022-09-30T21:07:00.234Z,3.30
2022-09-30T21:09:27.141Z,5.25
2022-09-30T21:11:54.344Z,4.30
2022-09-30T21:14:21.290Z,5.18
2022-09-30T21:16:48.335Z,5.95
2022-09-30T21:19:16.733Z,5.93
2022-09-30T21:21:43.546Z,4.45
2022-09-30T21:24:14.454Z,5.97
2022-09-30T21:26:41.322Z,4.13
2022-09-30T21:29:08.415Z,9.32
2022-09-30T21:31:37.831Z,6.20
2022-09-30T21:34:05.968Z,5.68
2022-09-30T21:36:32.879Z,5.18
2022-09-30T21:39:03.372Z,5.60
2022-09-30T21:41:32.866Z,7.85
2022-09-30T21:44:01.363Z,6.90
2022-09-30T21:46:29.620Z,5.40
2022-09-30T21:49:09.775Z,4.47
2022-09-30T21:51:36.908Z,5.93
2022-09-30T21:54:05.349Z,7.32
2022-09-30T21:56:32.300Z,6.22
2022-09-30T21:59:00.256Z,7.70
2022-09-30T22:01:27.303Z,5.07
2022-09-30T22:03:54.388Z,7.15
2022-09-30T22:06:23.105Z,8.73
2022-09-30T22:08:51.872Z,8.02
2022-09-30T22:11:27.313Z,7.45
2022-09-30T22:13:56.471Z,7.18
2022-09-30T22:16:27.581Z,7.93
2022-09-30T22:19:00.393Z,6.07
2022-09-30T22:21:33.138Z,7.10
2022-09-30T22:24:05.679Z,7.13
2022-09-30T22:26:34.229Z,8.98
2022-09-30T22:29:07.605Z,8.70
2022-09-30T22:31:35.099Z,8.77
2022-09-30T22:34:23.705Z,5.32
2022-09-30T22:37:12.426Z,6.53
2022-09-30T22:39:46.854Z,10.30
2022-09-30T22:42:13.824Z,8.70
2022-09-30T22:44:44.475Z,9.27
2022-09-30T22:47:12.172Z,10.50
2022-09-30T22:49:39.127Z,7.88
2022-09-30T22:52:08.457Z,13.68
2022-09-30T22:54:36.380Z,9.02
2022-09-30T22:57:04.503Z,14.45
2022-09-30T22:59:33.981Z,10.07
2022-09-30T23:02:00.836Z,10.88
2022-09-30T23:04:28.199Z,7.50
2022-09-30T23:06:55.810Z,9.07
2022-09-30T23:09:24.123Z,8.18
2022-09-30T23:11:57.003Z,9.25
2022-09-30T23:14:26.404Z,9.75
2022-09-30T23:16:53.599Z,11.65
2022-09-30T23:19:20.777Z,9.48
2022-09-30T23:21:47.916Z,11.98
2022-09-30T23:24:14.967Z,11.52
2022-09-30T23:26:42.243Z,12.48
2022-09-30T23:29:12.765Z,9.02
2022-09-30T23:31:39.956Z,10.07
2022-09-30T23:34:07.768Z,12.63
2022-09-30T23:36:44.589Z,9.10
2022-09-30T23:39:19.504Z,8.98
2022-09-30T23:41:50.484Z,10.15
2022-09-30T23:44:19.269Z,11.25
2022-09-30T23:47:08.300Z,9.02
2022-09-30T23:49:38.961Z,10.57
2022-09-30T23:52:12.640Z,10.30
2022-09-30T23:54:41.275Z,9.95
2022-09-30T23:57:10.684Z,9.95
2022-09-30T23:59:39.603Z,12.52
